Time;durP1;ratioP1;P1;durP2;ratioP2;P2;SDS_P1;SDS_P2;PMS_P1;PMS_P2;Temp;Humidity;BMP_temperature;BMP_pressure;BME280_temperature;BME280_humidity;BME280_pressure;Samples;Min_cycle;Max_cycle;Signal;HPM_P1;HPM_P2
2022/10/22 00:01:56;;;;;;;12.20;4.30;;;13.60;99.90;;;;;;2618624;54;20130;-80
2022/10/22 00:07:43;;;;;;;6.50;4.77;;;13.70;99.90;;;;;;2617618;54;20939;-81
2022/10/22 00:13:31;;;;;;;10.40;5.60;;;13.80;99.90;;;;;;2618926;54;20162;-80
2022/10/22 00:19:19;;;;;;;5.53;4.30;;;13.80;99.90;;;;;;2618390;54;20123;-80
2022/10/22 00:25:06;;;;;;;10.10;4.77;;;13.90;99.90;;;;;;2617538;39;20612;-81
2022/10/22 00:41:08;;;;;;;13.57;4.47;;;14.50;99.90;;;;;;2615850;54;20395;-80
2022/10/22 00:46:56;;;;;;;7.60;4.13;;;14.60;99.90;;;;;;2615479;54;20351;-79
2022/10/22 00:52:44;;;;;;;15.03;5.00;;;14.60;99.90;;;;;;2615226;54;20367;-79
2022/10/22 00:58:37;;;;;;;7.20;4.17;;;14.50;99.90;;;;;;2613441;54;20167;-78
2022/10/22 01:04:24;;;;;;;6.40;4.20;;;14.50;99.90;;;;;;2614972;54;20367;-76
2022/10/22 01:10:29;;;;;;;10.40;4.80;;;14.40;99.90;;;;;;2614324;54;20146;-77
2022/10/22 01:23:05;;;;;;;9.93;5.13;;;14.50;99.90;;;;;;2614586;39;20758;-77
2022/10/22 01:29:01;;;;;;;14.47;4.90;;;14.40;99.90;;;;;;2613997;54;21309;-76
2022/10/22 01:34:59;;;;;;;5.07;4.20;;;14.60;99.90;;;;;;2614680;54;20419;-77
2022/10/22 01:40:47;;;;;;;8.73;5.03;;;14.60;99.90;;;;;;2613396;54;20395;-75
2022/10/22 01:46:35;;;;;;;12.70;4.20;;;14.50;99.90;;;;;;2615323;54;20387;-78
2022/10/22 01:52:22;;;;;;;9.07;5.37;;;14.60;99.90;;;;;;2615813;54;20376;-76
2022/10/22 01:58:34;;;;;;;11.30;5.53;;;14.40;99.90;;;;;;2616853;54;20579;-76
2022/10/22 02:10:59;;;;;;;11.30;5.33;;;14.40;99.90;;;;;;2616809;54;20415;-78
2022/10/22 02:16:49;;;;;;;8.87;5.60;;;14.30;99.90;;;;;;2617315;39;20733;-77
2022/10/22 02:22:37;;;;;;;12.60;6.07;;;14.20;99.90;;;;;;2617243;54;20379;-76
2022/10/22 02:34:39;;;;;;;11.17;5.23;;;14.10;99.90;;;;;;2617847;39;20807;-77
2022/10/22 02:40:30;;;;;;;7.47;4.77;;;14.10;99.90;;;;;;2616052;54;20414;-77
2022/10/22 02:46:18;;;;;;;9.33;5.70;;;13.80;99.90;;;;;;2616590;54;20419;-76
2022/10/22 02:52:05;;;;;;;9.93;5.70;;;14.00;99.90;;;;;;2617463;31;20658;-75
2022/10/22 02:57:53;;;;;;;9.57;5.23;;;14.10;99.90;;;;;;2615785;54;20686;-77
2022/10/22 03:03:41;;;;;;;13.13;5.77;;;13.70;99.90;;;;;;2618419;39;20544;-79
2022/10/22 03:09:29;;;;;;;14.53;6.67;;;13.80;99.90;;;;;;2615869;54;20153;-79
2022/10/22 03:15:17;;;;;;;7.43;5.20;;;13.60;99.90;;;;;;2618666;54;20130;-80
2022/10/22 03:25:39;;;;;;;14.20;6.07;;;13.80;99.90;;;;;;2616307;54;20403;-80
2022/10/22 03:35:06;;;;;;;12.33;6.63;;;14.30;99.90;;;;;;2618229;54;20424;-79
2022/10/22 03:40:54;;;;;;;10.93;6.70;;;14.40;99.90;;;;;;2618508;39;20811;-81
2022/10/22 03:50:12;;;;;;;8.63;6.90;;;14.20;99.90;;;;;;2618204;54;20479;-80
2022/10/22 03:55:59;;;;;;;24.27;6.70;;;14.30;99.90;;;;;;2618208;54;20436;-80
2022/10/22 04:01:46;;;;;;;13.30;7.20;;;14.40;99.90;;;;;;2619787;54;20231;-79
2022/10/22 04:07:34;;;;;;;7.77;6.23;;;14.20;99.90;;;;;;2618085;54;20659;-80
2022/10/22 04:13:22;;;;;;;8.30;6.30;;;14.30;99.90;;;;;;2618825;39;20600;-81
2022/10/22 04:19:10;;;;;;;12.70;6.77;;;14.20;99.90;;;;;;2618596;54;20135;-80
2022/10/22 04:24:58;;;;;;;12.23;6.90;;;14.60;99.90;;;;;;2618044;54;20133;-79
2022/10/22 04:35:04;;;;;;;11.00;7.77;;;14.60;99.90;;;;;;2618167;54;20419;-80
2022/10/22 04:40:52;;;;;;;10.83;6.53;;;14.60;99.90;;;;;;2620676;39;20756;-81
2022/10/22 04:46:39;;;;;;;8.17;6.33;;;14.40;99.90;;;;;;2620407;54;20211;-80
2022/10/22 04:52:27;;;;;;;10.13;6.67;;;14.40;99.90;;;;;;2618603;54;20122;-80
2022/10/22 04:58:15;;;;;;;10.70;6.63;;;14.40;99.90;;;;;;2618845;54;20130;-80
2022/10/22 05:04:05;;;;;;;9.93;6.40;;;14.50;99.90;;;;;;2618819;54;20874;-81
2022/10/22 05:09:53;;;;;;;8.80;6.47;;;14.60;99.90;;;;;;2618730;39;20792;-79
2022/10/22 05:15:41;;;;;;;14.07;6.20;;;14.60;99.90;;;;;;2618083;54;20399;-79
2022/10/22 05:21:28;;;;;;;7.23;5.23;;;14.60;99.90;;;;;;2618266;54;20177;-79
2022/10/22 05:27:16;;;;;;;13.10;6.77;;;14.40;99.90;;;;;;2619367;54;20636;-79
2022/10/22 05:30:34;;;;;;;15.97;6.17;;;14.40;99.90;;;;;;2618964;54;20424;-80
2022/10/22 05:33:00;;;;;;;6.60;6.00;;;14.30;99.90;;;;;;2618745;54;20181;-80
2022/10/22 05:38:48;;;;;;;7.10;6.00;;;14.30;99.90;;;;;;2618401;54;20154;-80
2022/10/22 05:44:37;;;;;;;7.60;6.17;;;14.20;99.90;;;;;;2618763;54;20411;-80
2022/10/22 05:50:25;;;;;;;15.00;8.00;;;14.10;99.90;;;;;;2618856;54;20414;-79
2022/10/22 05:56:15;;;;;;;8.30;6.33;;;14.20;99.90;;;;;;2616251;54;20170;-79
2022/10/22 06:02:02;;;;;;;9.67;6.73;;;14.40;99.90;;;;;;2618748;54;20391;-80
2022/10/22 06:07:50;;;;;;;8.80;6.47;;;14.40;99.90;;;;;;2617468;54;20138;-80
2022/10/22 06:13:38;;;;;;;13.17;6.80;;;14.10;99.90;;;;;;2618512;54;20134;-80
2022/10/22 06:19:26;;;;;;;10.03;7.10;;;14.10;99.90;;;;;;2616748;54;20134;-79
2022/10/22 06:25:13;;;;;;;12.17;7.53;;;13.80;99.90;;;;;;2618435;54;20127;-80
2022/10/22 06:35:07;;;;;;;19.93;7.00;;;14.50;99.90;;;;;;2618592;54;20395;-80
2022/10/22 06:40:54;;;;;;;14.43;7.10;;;14.60;99.90;;;;;;2618312;54;20399;-79
2022/10/22 06:46:42;;;;;;;10.67;6.73;;;14.50;99.90;;;;;;2618588;54;20758;-80
2022/10/22 06:52:30;;;;;;;13.63;6.37;;;14.70;99.90;;;;;;2616854;54;20394;-82
2022/10/22 06:58:17;;;;;;;7.20;6.37;;;15.00;99.90;;;;;;2616893;54;20118;-80
2022/10/22 07:04:07;;;;;;;7.80;5.87;;;15.20;99.90;;;;;;2616896;54;20644;-79
2022/10/22 07:09:55;;;;;;;9.27;6.50;;;15.10;99.90;;;;;;2617561;54;20378;-81
2022/10/22 07:15:43;;;;;;;5.93;5.33;;;15.20;99.90;;;;;;2617972;54;20134;-80
2022/10/22 07:21:31;;;;;;;14.63;5.70;;;16.10;99.90;;;;;;2616102;39;20556;-80
2022/10/22 07:27:20;;;;;;;6.23;4.90;;;17.90;99.90;;;;;;2615655;54;20383;-80
2022/10/22 07:33:45;;;;;;;7.43;4.90;;;18.40;99.90;;;;;;2617824;54;20430;-80
2022/10/22 07:36:23;;;;;;;9.73;5.00;;;18.70;99.90;;;;;;2618336;54;20416;-80
2022/10/22 07:42:11;;;;;;;5.97;5.03;;;19.50;99.90;;;;;;2617290;54;20431;-81
2022/10/22 07:48:00;;;;;;;6.57;3.77;;;19.30;99.90;;;;;;2621140;39;20552;-81
2022/10/22 07:51:04;;;;;;;10.30;4.60;;;20.50;99.90;;;;;;2617723;54;20472;-81
2022/10/22 07:53:30;;;;;;;5.00;3.87;;;20.00;99.90;;;;;;2618026;47;20434;-81
2022/10/22 07:59:17;;;;;;;7.70;3.60;;;18.60;99.90;;;;;;2618982;54;20802;-80
2022/10/22 08:05:05;;;;;;;6.33;4.00;;;17.40;99.90;;;;;;2618675;54;20130;-79
2022/10/22 08:10:55;;;;;;;9.07;4.37;;;17.70;99.90;;;;;;2618158;39;20487;-80
2022/10/22 08:16:43;;;;;;;5.63;4.17;;;17.60;99.90;;;;;;2619511;54;20530;-81
2022/10/22 08:22:31;;;;;;;6.00;4.20;;;17.30;99.90;;;;;;2618831;54;20403;-79
2022/10/22 08:28:19;;;;;;;11.70;5.20;;;17.60;99.90;;;;;;2617829;54;20173;-79
2022/10/22 08:34:07;;;;;;;6.43;3.90;;;17.30;99.90;;;;;;2615646;54;20197;-78
2022/10/22 08:39:55;;;;;;;5.53;3.07;;;17.20;99.90;;;;;;2616967;54;20396;-78
2022/10/22 08:52:04;;;;;;;4.80;3.60;;;17.00;99.90;;;;;;2617331;39;20774;-81
2022/10/22 08:57:55;;;;;;;4.60;3.50;;;16.90;99.90;;;;;;2617334;54;20426;-77
2022/10/22 09:10:20;;;;;;;10.20;4.43;;;16.90;99.90;;;;;;2616392;54;20371;-80
2022/10/22 09:28:59;;;;;;;4.03;3.30;;;17.20;99.90;;;;;;2615469;54;20432;-80
2022/10/22 09:31:51;;;;;;;4.80;3.43;;;17.40;99.90;;;;;;2613749;54;20423;-79
2022/10/22 09:34:21;;;;;;;5.80;3.60;;;17.40;99.90;;;;;;2613815;54;20431;-80
2022/10/22 09:40:14;;;;;;;5.03;3.20;;;17.40;99.90;;;;;;2614355;54;20395;-79
2022/10/22 09:46:05;;;;;;;8.90;3.70;;;17.20;99.90;;;;;;2614422;39;20741;-78
2022/10/22 09:51:57;;;;;;;4.87;3.23;;;17.20;99.90;;;;;;2615005;54;20387;-79
2022/10/22 10:04:17;;;;;;;6.70;3.53;;;17.00;99.90;;;;;;2617907;54;20394;-79
2022/10/22 10:17:03;;;;;;;7.47;3.13;;;16.90;99.90;;;;;;2620229;54;20363;-80
2022/10/22 11:11:47;;;;;;;8.93;3.40;;;17.90;99.90;;;;;;2616487;54;20460;-77
2022/10/22 11:17:41;;;;;;;6.73;2.93;;;18.00;99.90;;;;;;2617602;39;20868;-76
2022/10/22 11:36:05;;;;;;;9.20;4.80;;;18.20;99.90;;;;;;2616349;54;20494;-77
2022/10/22 11:41:52;;;;;;;3.40;3.10;;;18.10;99.90;;;;;;2617604;54;20395;-76
2022/10/22 11:54:30;;;;;;;6.50;3.30;;;18.00;99.90;;;;;;2615304;54;20420;-76
2022/10/22 12:00:38;;;;;;;6.60;2.77;;;18.00;99.90;;;;;;2615173;54;20399;-76
2022/10/22 12:06:27;;;;;;;4.63;3.07;;;17.90;99.90;;;;;;2615483;39;20754;-76
2022/10/22 12:12:15;;;;;;;6.03;3.07;;;17.70;99.90;;;;;;2613509;54;20396;-76
2022/10/22 12:18:04;;;;;;;3.50;3.20;;;17.80;99.90;;;;;;2613722;54;20507;-75
2022/10/22 12:23:52;;;;;;;7.60;3.63;;;17.80;99.90;;;;;;2614837;54;20443;-77
2022/10/22 12:29:40;;;;;;;5.53;3.67;;;17.80;99.90;;;;;;2615266;54;20442;-77
2022/10/22 12:38:59;;;;;;;3.50;3.20;;;18.20;99.90;;;;;;2615793;39;20877;-76
2022/10/22 12:44:47;;;;;;;3.20;2.73;;;17.90;99.90;;;;;;2614497;54;21043;-78
2022/10/22 12:50:40;;;;;;;4.13;2.97;;;17.80;99.90;;;;;;2613922;54;20134;-78
2022/10/22 12:56:32;;;;;;;3.57;2.90;;;17.90;99.90;;;;;;2614880;54;20390;-77
2022/10/22 13:02:23;;;;;;;6.10;3.20;;;17.90;99.90;;;;;;2616597;54;20395;-77
2022/10/22 13:08:16;;;;;;;3.80;3.37;;;17.90;99.90;;;;;;2616025;54;20932;-77
2022/10/22 13:20:36;;;;;;;6.40;3.60;;;17.90;99.90;;;;;;2613202;54;20391;-77
2022/10/22 13:26:30;;;;;;;4.00;2.83;;;17.80;99.90;;;;;;2615306;39;21113;-78
2022/10/22 13:43:12;;;;;;;6.20;3.00;;;17.70;99.90;;;;;;2612790;54;20379;-76
2022/10/22 13:48:59;;;;;;;8.70;3.43;;;17.70;99.90;;;;;;2614255;54;20411;-77
2022/10/22 13:54:46;;;;;;;3.93;3.13;;;17.90;99.90;;;;;;2615047;54;20122;-77
2022/10/22 14:00:33;;;;;;;4.23;3.83;;;17.90;99.90;;;;;;2614681;39;20607;-77
2022/10/22 14:06:21;;;;;;;8.23;3.50;;;17.70;99.90;;;;;;2614883;54;20147;-76
2022/10/22 14:12:14;;;;;;;3.50;2.80;;;17.70;99.90;;;;;;2620223;54;20382;-80
2022/10/22 14:18:04;;;;;;;4.30;3.90;;;17.90;99.90;;;;;;2620967;54;20411;-81
2022/10/22 14:23:53;;;;;;;7.47;3.87;;;18.00;99.90;;;;;;2619444;54;20525;-79
2022/10/22 14:29:41;;;;;;;5.27;3.17;;;18.00;99.90;;;;;;2619347;54;20975;-79
2022/10/22 14:35:29;;;;;;;4.80;4.40;;;17.70;99.90;;;;;;2618897;54;20138;-80
2022/10/22 14:41:25;;;;;;;4.17;3.70;;;17.80;99.90;;;;;;2618601;54;20217;-80
2022/10/22 14:47:13;;;;;;;6.07;3.93;;;17.80;99.90;;;;;;2619010;54;20359;-80
2022/10/22 14:53:01;;;;;;;6.40;4.00;;;17.60;99.90;;;;;;2619748;54;20130;-81
2022/10/22 14:58:49;;;;;;;5.53;4.00;;;17.70;99.90;;;;;;2620059;46;20607;-80
2022/10/22 15:04:37;;;;;;;3.90;3.60;;;17.60;99.90;;;;;;2619517;54;20415;-80
2022/10/22 15:10:25;;;;;;;5.57;3.10;;;17.60;99.90;;;;;;2618284;54;20193;-80
2022/10/22 15:16:15;;;;;;;5.63;3.53;;;17.60;99.90;;;;;;2619790;54;20388;-80
2022/10/22 15:22:03;;;;;;;5.80;3.40;;;18.40;99.90;;;;;;2618043;54;20418;-79
2022/10/22 15:27:50;;;;;;;5.70;3.47;;;17.70;99.90;;;;;;2618010;54;20403;-80
2022/10/22 15:37:04;;;;;;;6.27;3.50;;;17.50;99.90;;;;;;2617738;54;20448;-80
2022/10/22 15:42:51;;;;;;;7.20;4.30;;;17.60;99.90;;;;;;2618179;54;20379;-80
2022/10/22 15:48:40;;;;;;;4.20;3.80;;;17.40;99.90;;;;;;2618024;54;20126;-79
2022/10/22 15:54:29;;;;;;;5.90;3.63;;;17.20;99.90;;;;;;2618907;54;20407;-79
2022/10/22 16:00:17;;;;;;;7.10;4.90;;;16.90;99.90;;;;;;2618607;54;20388;-79
2022/10/22 16:06:08;;;;;;;3.90;3.50;;;16.50;99.90;;;;;;2617651;54;20141;-78
2022/10/22 16:11:56;;;;;;;5.23;3.50;;;16.20;99.90;;;;;;2615901;54;20507;-78
2022/10/22 16:17:44;;;;;;;7.80;4.50;;;15.70;99.90;;;;;;2616288;39;20769;-77
2022/10/22 16:23:32;;;;;;;7.33;3.47;;;15.20;99.90;;;;;;2615173;54;20130;-77
2022/10/22 16:29:20;;;;;;;9.30;3.20;;;14.90;99.90;;;;;;2615450;39;20886;-77
2022/10/22 16:35:08;;;;;;;7.07;3.77;;;14.80;99.90;;;;;;2616237;54;20157;-77
2022/10/22 16:44:18;;;;;;;11.13;4.80;;;14.50;99.90;;;;;;2614526;54;20396;-78
2022/10/22 16:50:06;;;;;;;13.17;6.43;;;14.20;99.90;;;;;;2616054;54;20142;-77
2022/10/22 16:55:54;;;;;;;10.50;5.20;;;14.00;99.90;;;;;;2615502;54;20391;-76
2022/10/22 17:01:41;;;;;;;8.57;5.83;;;13.80;99.90;;;;;;2614501;54;20133;-77
2022/10/22 17:07:29;;;;;;;10.23;5.37;;;13.50;99.90;;;;;;2616376;54;20134;-77
2022/10/22 17:13:17;;;;;;;7.60;4.70;;;13.20;99.90;;;;;;2614436;54;20166;-77
2022/10/22 17:19:05;;;;;;;7.20;4.00;;;13.10;99.90;;;;;;2612022;54;20166;-78
2022/10/22 17:25:13;;;;;;;9.23;5.23;;;13.00;99.90;;;;;;2615725;54;20199;-78
2022/10/22 17:31:02;;;;;;;6.73;5.20;;;12.90;99.90;;;;;;2614363;54;20386;-77
2022/10/22 17:36:50;;;;;;;7.20;5.10;;;12.80;99.90;;;;;;2615527;54;20900;-79
2022/10/22 17:39:46;;;;;;;11.23;5.73;;;12.60;99.90;;;;;;2615652;54;20435;-79
2022/10/22 17:42:12;;;;;;;10.47;6.10;;;12.60;99.90;;;;;;2614698;47;20175;-80
2022/10/22 17:48:00;;;;;;;7.43;6.23;;;12.50;99.90;;;;;;2616762;54;20197;-79
2022/10/22 17:53:51;;;;;;;9.97;7.83;;;12.50;99.90;;;;;;2615248;54;20452;-80
2022/10/22 17:59:39;;;;;;;10.63;7.97;;;12.40;99.90;;;;;;2614928;54;20468;-79
2022/10/22 18:05:27;;;;;;;10.87;8.63;;;12.40;99.90;;;;;;2615392;54;20150;-79
2022/10/22 18:11:21;;;;;;;13.97;9.10;;;12.30;99.90;;;;;;2615338;54;20754;-79
2022/10/22 18:17:09;;;;;;;10.30;8.57;;;12.30;99.90;;;;;;2615521;54;20406;-79
2022/10/22 18:22:57;;;;;;;9.83;8.37;;;12.10;99.90;;;;;;2616770;31;20579;-79
2022/10/22 18:28:45;;;;;;;16.77;8.70;;;11.90;99.90;;;;;;2616464;54;20154;-78
2022/10/22 18:34:33;;;;;;;8.50;7.53;;;11.90;99.90;;;;;;2619235;54;20432;-81
2022/10/22 18:44:14;;;;;;;17.00;8.10;;;12.00;99.90;;;;;;2617522;54;20430;-78
2022/10/22 18:50:02;;;;;;;17.73;11.10;;;12.00;99.90;;;;;;2619571;54;20398;-80
2022/10/22 18:55:50;;;;;;;13.63;9.10;;;12.30;99.90;;;;;;2623853;54;20150;-79
2022/10/22 18:58:16;;;;;;;12.57;7.20;;;12.20;99.90;;;;;;2624517;54;20392;-80
2022/10/22 19:00:43;;;;;;;9.93;6.50;;;12.20;99.90;;;;;;2625159;54;20161;-81
2022/10/22 19:06:31;;;;;;;15.07;7.77;;;12.50;99.90;;;;;;2622774;54;20487;-82
2022/10/22 19:12:20;;;;;;;14.83;6.90;;;12.30;99.90;;;;;;2624154;54;20149;-82
2022/10/22 19:18:08;;;;;;;10.27;5.63;;;12.40;99.90;;;;;;2622412;54;20391;-84
2022/10/22 19:23:57;;;;;;;11.37;6.60;;;12.40;99.90;;;;;;2621859;54;20395;-80
2022/10/22 19:29:45;;;;;;;21.50;7.93;;;12.20;99.90;;;;;;2623098;54;20399;-82
2022/10/22 19:35:35;;;;;;;10.53;6.60;;;12.00;99.90;;;;;;2623708;54;20432;-81
2022/10/22 19:41:25;;;;;;;8.90;6.60;;;11.80;99.90;;;;;;2623314;54;20466;-79
2022/10/22 19:47:14;;;;;;;8.67;7.60;;;11.60;99.90;;;;;;2623116;54;20386;-80
2022/10/22 19:50:18;;;;;;;10.17;7.23;;;11.60;99.90;;;;;;2622686;54;20390;-80
2022/10/22 19:52:43;;;;;;;15.43;8.57;;;11.50;99.90;;;;;;2623712;54;20427;-82
2022/10/22 19:58:31;;;;;;;9.93;6.77;;;11.40;99.90;;;;;;2624065;54;20138;-83
2022/10/22 20:04:23;;;;;;;19.37;8.07;;;11.30;99.90;;;;;;2624076;54;20137;-82
2022/10/22 20:10:11;;;;;;;10.43;9.10;;;11.30;99.90;;;;;;2622052;54;20419;-80
2022/10/22 20:16:02;;;;;;;9.13;7.80;;;11.30;99.90;;;;;;2621233;54;20170;-79
2022/10/22 20:21:50;;;;;;;8.33;7.37;;;11.30;99.90;;;;;;2622698;54;20331;-79
2022/10/22 20:27:38;;;;;;;10.17;6.60;;;12.00;99.90;;;;;;2622935;54;20138;-79
2022/10/22 20:33:26;;;;;;;11.30;7.03;;;12.20;99.90;;;;;;2621160;54;20666;-82
2022/10/22 20:39:15;;;;;;;10.30;6.40;;;12.20;99.90;;;;;;2613605;54;22441;-79
2022/10/22 20:45:03;;;;;;;18.23;7.47;;;12.20;99.90;;;;;;2614255;54;20456;-77
2022/10/22 20:50:52;;;;;;;16.23;6.50;;;12.40;99.90;;;;;;2613816;54;20374;-77
2022/10/22 20:56:41;;;;;;;8.57;6.40;;;12.50;99.90;;;;;;2614099;54;20423;-77
2022/10/22 21:02:29;;;;;;;8.70;5.30;;;12.60;99.90;;;;;;2614058;54;20423;-77
2022/10/22 21:08:17;;;;;;;6.70;5.07;;;12.70;99.90;;;;;;2613398;54;20165;-78
2022/10/22 21:14:07;;;;;;;10.90;5.40;;;12.50;99.90;;;;;;2613853;54;20161;-79
2022/10/22 21:19:55;;;;;;;11.37;4.83;;;12.70;99.90;;;;;;2614093;54;20947;-78
2022/10/22 21:32:17;;;;;;;12.30;5.47;;;13.50;99.90;;;;;;2614121;54;20399;-76
2022/10/22 21:38:06;;;;;;;6.13;4.60;;;13.50;99.90;;;;;;2613041;54;20138;-78
2022/10/22 21:43:54;;;;;;;9.50;5.30;;;13.60;99.90;;;;;;2611409;54;20415;-79
2022/10/22 21:49:42;;;;;;;12.17;6.50;;;13.80;99.90;;;;;;2611704;54;20196;-79
2022/10/22 21:55:33;;;;;;;12.13;4.90;;;13.80;99.90;;;;;;2612723;54;20407;-79
2022/10/22 22:01:22;;;;;;;10.70;5.20;;;13.90;99.90;;;;;;2611816;54;20387;-78
2022/10/22 22:07:09;;;;;;;9.73;4.53;;;13.90;99.90;;;;;;2611595;54;20379;-77
2022/10/22 22:12:57;;;;;;;6.83;4.43;;;13.80;99.90;;;;;;2612619;54;20138;-78
2022/10/22 22:18:45;;;;;;;10.30;4.37;;;13.70;99.90;;;;;;2612181;39;20585;-78
2022/10/22 22:24:33;;;;;;;10.27;4.23;;;13.80;99.90;;;;;;2614134;54;20173;-78
2022/10/22 22:30:21;;;;;;;10.67;5.20;;;13.70;99.90;;;;;;2612249;54;20150;-78
2022/10/22 22:36:09;;;;;;;11.50;4.07;;;13.60;99.90;;;;;;2614883;54;20157;-78
2022/10/22 22:45:19;;;;;;;5.33;3.33;;;13.00;99.90;;;;;;2611121;54;21075;-78
2022/10/22 22:51:08;;;;;;;5.33;4.60;;;12.90;99.90;;;;;;2612756;54;20123;-78
2022/10/22 22:56:56;;;;;;;17.20;5.40;;;13.20;99.90;;;;;;2611921;54;20407;-77
2022/10/22 23:02:44;;;;;;;5.73;3.87;;;13.50;99.90;;;;;;2611634;54;22042;-78
2022/10/22 23:08:32;;;;;;;9.40;4.13;;;13.50;99.90;;;;;;2615339;54;20186;-80
2022/10/22 23:14:20;;;;;;;7.30;3.80;;;13.60;99.90;;;;;;2618114;39;20750;-80
2022/10/22 23:20:08;;;;;;;8.83;4.70;;;13.50;99.90;;;;;;2616286;54;20134;-80
2022/10/22 23:25:56;;;;;;;8.80;4.00;;;13.50;99.90;;;;;;2615818;54;20378;-79
2022/10/22 23:31:46;;;;;;;10.07;4.90;;;13.80;99.90;;;;;;2615742;54;20130;-80
2022/10/22 23:37:34;;;;;;;17.40;4.33;;;13.30;99.90;;;;;;2616646;54;20383;-79
2022/10/22 23:40:45;;;;;;;8.13;4.07;;;13.20;99.90;;;;;;2614161;47;20424;-80
2022/10/22 23:43:10;;;;;;;9.20;4.80;;;13.50;99.90;;;;;;2616076;54;20242;-80
2022/10/22 23:48:59;;;;;;;8.00;4.27;;;13.40;99.90;;;;;;2615248;54;20648;-80
2022/10/22 23:54:47;;;;;;;6.73;4.37;;;12.90;99.90;;;;;;2615084;54;20371;-80
